Time;durP1;ratioP1;P1;durP2;ratioP2;P2;SDS_P1;SDS_P2;PMS_P1;PMS_P2;Temp;Humidity;BMP_temperature;BMP_pressure;BME280_temperature;BME280_humidity;BME280_pressure;Samples;Min_cycle;Max_cycle;Signal;HPM_P1;HPM_P2
2021/09/25 00:01:17;;;;;;;7.80;5.30;;;;;;;17.02;75.59;101134.41;6109527;29;20213;-55
2021/09/25 00:04:38;;;;;;;8.97;5.00;;;;;;;17.19;74.56;101123.31;6118980;29;20228;-54
2021/09/25 00:08:00;;;;;;;8.17;4.90;;;;;;;17.01;75.54;101137.91;6114712;29;20236;-50
2021/09/25 00:11:21;;;;;;;6.30;4.70;;;;;;;17.14;75.03;101122.63;6112401;29;20618;-50
2021/09/25 00:14:43;;;;;;;5.70;5.00;;;;;;;17.16;75.27;101127.81;6123157;29;20248;-52
2021/09/25 00:18:05;;;;;;;4.80;4.33;;;;;;;17.19;74.75;101117.19;6116221;29;20243;-55
2021/09/25 00:21:27;;;;;;;9.37;5.57;;;;;;;17.18;74.63;101128.66;6114267;28;20521;-54
2021/09/25 00:24:49;;;;;;;10.40;5.27;;;;;;;17.51;73.47;101135.44;6120500;29;20204;-53
2021/09/25 00:28:10;;;;;;;7.50;5.23;;;;;;;17.35;73.97;101123.72;6118737;29;21088;-51
2021/09/25 00:31:31;;;;;;;9.00;4.77;;;;;;;17.53;73.38;101124.88;6117671;28;20614;-52
2021/09/25 00:34:52;;;;;;;7.23;4.73;;;;;;;17.27;74.24;101128.34;6118189;29;20235;-54
2021/09/25 00:38:13;;;;;;;6.90;5.38;;;;;;;17.10;74.80;101127.13;6102134;28;20244;-50
2021/09/25 00:41:36;;;;;;;6.95;4.95;;;;;;;17.32;74.67;101123.78;6117889;29;20239;-54
2021/09/25 00:44:57;;;;;;;8.15;5.15;;;;;;;17.18;74.67;101131.28;6118970;29;20220;-54
2021/09/25 00:48:17;;;;;;;8.93;5.73;;;;;;;17.29;74.54;101119.50;6116920;29;20236;-54
2021/09/25 00:51:38;;;;;;;7.18;6.47;;;;;;;17.27;74.58;101130.97;6120138;29;20231;-50
2021/09/25 00:55:00;;;;;;;6.17;4.67;;;;;;;16.98;75.52;101138.00;6122535;29;20220;-54
2021/09/25 00:58:22;;;;;;;8.23;5.73;;;;;;;16.77;76.91;101146.50;6117666;28;20231;-53
2021/09/25 01:01:44;;;;;;;6.27;5.30;;;;;;;16.95;76.46;101137.25;6125045;28;20227;-54
2021/09/25 01:05:07;;;;;;;6.93;5.33;;;;;;;16.98;76.45;101138.00;6119241;29;20205;-55
2021/09/25 01:08:27;;;;;;;7.10;4.87;;;;;;;16.80;76.87;101136.75;6114017;29;20235;-48
2021/09/25 01:11:49;;;;;;;8.90;6.43;;;;;;;17.05;75.87;101142.16;6122246;28;20247;-49
2021/09/25 01:15:13;;;;;;;6.30;5.13;;;;;;;16.82;76.90;101147.28;6121645;29;20212;-52
2021/09/25 01:18:34;;;;;;;8.77;5.30;;;;;;;17.00;76.95;101144.09;6123350;29;20228;-50
2021/09/25 01:21:56;;;;;;;6.17;5.50;;;;;;;17.09;76.11;101149.06;6128561;29;20228;-53
2021/09/25 01:25:17;;;;;;;6.37;5.30;;;;;;;16.63;78.62;101155.66;6120334;29;20196;-48
2021/09/25 01:28:41;;;;;;;8.38;6.22;;;;;;;16.81;77.93;101141.13;6123719;28;20720;-52
2021/09/25 01:32:03;;;;;;;7.80;5.80;;;;;;;16.90;77.44;101147.91;6124654;29;20334;-53
2021/09/25 01:35:24;;;;;;;9.30;5.63;;;;;;;16.74;78.04;101144.84;6122368;29;20208;-53
2021/09/25 01:38:47;;;;;;;9.77;6.60;;;;;;;16.73;78.20;101149.25;6130387;28;20227;-52
2021/09/25 01:42:08;;;;;;;11.40;6.93;;;;;;;16.68;78.21;101163.44;6121501;29;20244;-50
2021/09/25 01:45:29;;;;;;;14.23;7.60;;;;;;;17.04;77.31;101156.25;6112550;29;20625;-53
2021/09/25 01:48:50;;;;;;;12.27;8.77;;;;;;;16.66;79.56;101157.34;6117084;29;20228;-50
2021/09/25 01:52:11;;;;;;;10.67;8.60;;;;;;;16.81;79.93;101158.66;6117210;29;20228;-47
2021/09/25 01:55:34;;;;;;;11.87;7.57;;;;;;;16.89;79.45;101161.97;6120910;29;20620;-49
2021/09/25 01:58:54;;;;;;;13.00;8.37;;;;;;;16.57;81.25;101162.88;6121687;28;20493;-50
2021/09/25 02:02:15;;;;;;;13.90;10.03;;;;;;;16.76;80.82;101155.31;6127574;29;20227;-51
2021/09/25 02:05:36;;;;;;;12.97;8.47;;;;;;;16.45;82.31;101158.81;6127786;29;22044;-53
2021/09/25 02:08:58;;;;;;;13.80;8.63;;;;;;;16.76;81.34;101161.44;6123033;28;20236;-52
2021/09/25 02:12:20;;;;;;;9.00;7.67;;;;;;;16.73;81.38;101169.44;6122256;29;20236;-54
2021/09/25 02:15:42;;;;;;;9.97;8.70;;;;;;;16.44;83.39;101159.72;6125579;29;20249;-49
2021/09/25 02:19:03;;;;;;;11.60;9.47;;;;;;;16.45;83.13;101161.44;6124478;29;20235;-53
2021/09/25 02:22:24;;;;;;;9.90;8.93;;;;;;;16.43;83.92;101158.84;6121945;28;20331;-54
2021/09/25 02:25:45;;;;;;;10.50;8.60;;;;;;;16.60;83.11;101163.66;6124111;29;20208;-50
2021/09/25 02:29:07;;;;;;;12.03;9.70;;;;;;;16.40;83.66;101169.47;6124059;29;20315;-53
2021/09/25 02:32:28;;;;;;;11.93;9.43;;;;;;;16.56;83.81;101169.91;6124590;29;20254;-49
2021/09/25 02:35:50;;;;;;;10.73;9.47;;;;;;;16.18;85.92;101165.69;6122161;29;20224;-52
2021/09/25 02:39:11;;;;;;;12.77;9.80;;;;;;;16.37;85.31;101160.81;6124463;29;20215;-50
2021/09/25 02:42:32;;;;;;;12.10;9.33;;;;;;;16.62;84.21;101171.50;6123729;29;20243;-52
2021/09/25 02:45:55;;;;;;;14.83;10.70;;;;;;;16.36;84.99;101166.97;6125136;29;20315;-51
2021/09/25 02:49:16;;;;;;;11.70;10.50;;;;;;;16.19;87.01;101170.91;6116621;29;20841;-51
2021/09/25 02:52:37;;;;;;;15.07;11.57;;;;;;;16.68;85.05;101173.94;6118776;29;20223;-54
2021/09/25 02:55:58;;;;;;;12.87;9.90;;;;;;;16.76;84.01;101168.47;6122615;29;20723;-51
2021/09/25 02:59:19;;;;;;;11.33;10.10;;;;;;;16.58;84.92;101173.34;6125174;29;20227;-53
2021/09/25 03:02:42;;;;;;;14.70;11.27;;;;;;;16.53;85.67;101172.59;6110839;28;20232;-52
2021/09/25 03:06:02;;;;;;;12.17;9.93;;;;;;;16.07;87.74;101168.59;6096205;29;20212;-52
2021/09/25 03:09:23;;;;;;;16.33;11.63;;;;;;;16.56;85.91;101169.06;6120255;29;20251;-54
2021/09/25 03:12:44;;;;;;;11.20;10.07;;;;;;;16.48;85.69;101171.91;6119836;28;20235;-53
2021/09/25 03:16:06;;;;;;;13.33;10.73;;;;;;;16.23;87.24;101167.31;6121969;28;20208;-46
2021/09/25 03:19:28;;;;;;;15.03;11.67;;;;;;;16.31;86.96;101175.84;6121101;29;20216;-53
2021/09/25 03:22:49;;;;;;;15.77;11.97;;;;;;;16.47;86.09;101180.66;6119360;29;20231;-55
2021/09/25 03:26:10;;;;;;;14.57;12.60;;;;;;;16.61;85.46;101178.50;6123598;28;20212;-54
2021/09/25 03:29:31;;;;;;;14.17;12.77;;;;;;;16.46;86.60;101178.94;6120814;29;20621;-53
2021/09/25 03:32:52;;;;;;;14.80;13.13;;;;;;;16.56;85.83;101180.41;6125521;28;20324;-48
2021/09/25 03:36:14;;;;;;;15.20;13.77;;;;;;;16.38;85.91;101179.19;6120873;29;20319;-54
2021/09/25 03:39:35;;;;;;;14.67;13.27;;;;;;;16.82;84.74;101187.56;6123120;29;20213;-50
2021/09/25 03:42:56;;;;;;;14.60;13.20;;;;;;;16.32;87.20;101182.81;6121214;29;20568;-50
2021/09/25 03:46:18;;;;;;;14.13;12.70;;;;;;;16.18;87.54;101186.72;6122080;28;20223;-49
2021/09/25 03:49:41;;;;;;;14.67;13.30;;;;;;;16.17;87.86;101191.13;6123067;29;20215;-50
2021/09/25 03:53:04;;;;;;;14.23;12.93;;;;;;;16.78;85.66;101192.94;6121354;28;20236;-50
2021/09/25 03:56:25;;;;;;;15.23;13.57;;;;;;;16.44;86.97;101193.88;6122004;29;20212;-50
2021/09/25 03:59:46;;;;;;;14.60;13.23;;;;;;;16.38;87.05;101188.81;6126602;29;20484;-50
2021/09/25 04:03:06;;;;;;;15.83;14.43;;;;;;;16.64;86.39;101199.47;6125568;29;20262;-50
2021/09/25 04:06:27;;;;;;;16.93;14.17;;;;;;;16.45;87.96;101187.75;6122190;28;20259;-50
2021/09/25 04:09:50;;;;;;;15.70;14.07;;;;;;;16.47;87.73;101191.19;6115640;29;20224;-50
2021/09/25 04:13:11;;;;;;;15.63;14.27;;;;;;;16.63;87.85;101186.34;6122694;29;20231;-53
2021/09/25 04:16:32;;;;;;;17.93;16.03;;;;;;;16.77;87.00;101189.47;6122268;29;20236;-52
2021/09/25 04:19:53;;;;;;;18.47;16.80;;;;;;;16.36;88.62;101183.56;6121876;29;20199;-49
2021/09/25 04:23:14;;;;;;;17.53;16.07;;;;;;;16.36;89.57;101185.34;6121218;29;20342;-47
2021/09/25 04:26:36;;;;;;;18.33;16.83;;;;;;;16.42;89.97;101191.31;6114517;29;20235;-53
2021/09/25 04:29:59;;;;;;;15.50;14.10;;;;;;;16.31;90.33;101186.34;6117254;29;20807;-51
2021/09/25 04:33:20;;;;;;;17.97;16.47;;;;;;;16.10;91.24;101186.91;6114771;28;20227;-49
2021/09/25 04:36:42;;;;;;;18.17;16.50;;;;;;;16.46;89.70;101195.59;6121997;28;20251;-51
2021/09/25 04:40:04;;;;;;;18.13;16.53;;;;;;;16.71;88.28;101198.41;6121735;29;20207;-52
2021/09/25 04:43:26;;;;;;;20.20;18.40;;;;;;;16.64;88.62;101209.97;6123302;29;20235;-51
2021/09/25 04:46:47;;;;;;;21.20;19.30;;;;;;;16.72;87.75;101207.13;6125503;29;20256;-48
2021/09/25 04:50:09;;;;;;;20.80;18.67;;;;;;;16.65;88.48;101206.47;6122934;29;20219;-54
2021/09/25 04:53:31;;;;;;;23.75;21.63;;;;;;;16.44;89.80;101217.53;6121667;28;20226;-49
2021/09/25 04:56:52;;;;;;;20.80;18.70;;;;;;;16.70;88.33;101219.47;6124686;28;20333;-48
2021/09/25 05:00:15;;;;;;;22.47;20.23;;;;;;;16.59;89.80;101222.38;6123947;29;20200;-52
2021/09/25 05:03:36;;;;;;;23.80;21.30;;;;;;;16.57;89.73;101225.97;6127930;29;20232;-50
2021/09/25 05:06:57;;;;;;;23.95;21.63;;;;;;;16.68;88.87;101213.38;6124962;29;20235;-53
2021/09/25 05:10:18;;;;;;;21.87;19.73;;;;;;;16.87;87.05;101217.25;6125190;29;20219;-50
2021/09/25 05:13:39;;;;;;;23.50;21.43;;;;;;;16.56;88.92;101209.34;6123771;28;20235;-52
2021/09/25 05:17:01;;;;;;;25.47;22.83;;;;;;;16.62;88.92;101217.06;6129074;28;20239;-53
2021/09/25 05:20:22;;;;;;;25.73;23.43;;;;;;;16.79;88.41;101226.22;6126584;29;20354;-51
2021/09/25 05:23:43;;;;;;;27.02;24.48;;;;;;;16.65;88.33;101229.25;6125269;28;20539;-55
2021/09/25 05:27:06;;;;;;;25.73;23.20;;;;;;;16.80;88.13;101233.22;6122307;29;20228;-54
2021/09/25 05:30:29;;;;;;;24.35;21.85;;;;;;;16.57;88.65;101229.44;6126527;29;20291;-51
2021/09/25 05:33:52;;;;;;;27.98;24.55;;;;;;;16.76;88.25;101236.84;6125288;29;20613;-53
2021/09/25 05:37:14;;;;;;;26.23;23.50;;;;;;;16.83;87.70;101241.06;6125905;28;20247;-50
2021/09/25 05:40:35;;;;;;;26.37;23.50;;;;;;;16.78;88.41;101241.16;6124707;29;20196;-53
2021/09/25 05:43:56;;;;;;;31.70;23.87;;;;;;;16.66;88.82;101234.47;6118465;29;20228;-51
2021/09/25 05:47:17;;;;;;;26.23;23.33;;;;;;;16.64;88.84;101231.00;6124278;28;20224;-52
2021/09/25 05:50:40;;;;;;;25.33;22.83;;;;;;;16.91;87.32;101228.56;6125913;29;20223;-49
2021/09/25 05:54:00;;;;;;;23.63;21.10;;;;;;;16.88;87.31;101240.00;6124851;28;20260;-52
2021/09/25 05:57:22;;;;;;;26.80;23.93;;;;;;;17.11;85.53;101244.59;6109435;28;20232;-53
2021/09/25 06:00:43;;;;;;;25.13;22.70;;;;;;;16.75;87.30;101257.03;6111507;29;20197;-53
2021/09/25 06:04:04;;;;;;;31.30;24.07;;;;;;;16.91;86.99;101258.34;6124672;28;21149;-52
2021/09/25 06:07:26;;;;;;;25.03;22.33;;;;;;;16.85;86.88;101260.28;6124686;29;20238;-49
2021/09/25 06:10:47;;;;;;;25.43;22.70;;;;;;;16.95;86.38;101272.28;6126031;29;20436;-52
2021/09/25 06:14:08;;;;;;;26.87;22.47;;;;;;;16.88;87.65;101268.94;6095801;29;20224;-54
2021/09/25 06:17:28;;;;;;;26.70;23.80;;;;;;;16.66;88.05;101260.75;6091635;29;20240;-50
2021/09/25 06:20:50;;;;;;;29.13;22.57;;;;;;;16.68;87.93;101261.56;6097637;29;20205;-51
2021/09/25 06:24:12;;;;;;;29.60;22.43;;;;;;;16.67;87.81;101266.88;6096061;29;20237;-53
2021/09/25 06:27:34;;;;;;;27.43;22.30;;;;;;;16.59;88.55;101271.47;6090922;29;20509;-53
2021/09/25 06:30:55;;;;;;;27.02;20.98;;;;;;;17.06;86.10;101270.22;6085937;29;20513;-52
2021/09/25 06:34:16;;;;;;;25.30;21.30;;;;;;;17.13;85.66;101261.19;6078260;29;20233;-52
2021/09/25 06:37:37;;;;;;;29.07;21.10;;;;;;;17.05;86.01;101273.72;6085748;29;20232;-51
2021/09/25 06:40:59;;;;;;;24.57;18.97;;;;;;;17.48;83.93;101280.34;6084437;29;20299;-54
2021/09/25 06:44:20;;;;;;;23.27;18.53;;;;;;;17.34;83.93;101284.31;6082412;29;20224;-52
2021/09/25 06:47:41;;;;;;;21.40;18.80;;;;;;;17.17;85.31;101293.56;6073011;29;20232;-55
2021/09/25 06:51:02;;;;;;;19.90;17.17;;;;;;;17.59;82.93;101298.47;6081657;29;20662;-51
2021/09/25 06:54:23;;;;;;;26.98;18.42;;;;;;;17.49;82.89;101300.50;6086572;29;20246;-53
2021/09/25 06:57:45;;;;;;;20.88;16.38;;;;;;;17.27;84.34;101299.41;6085763;29;20229;-51
2021/09/25 07:01:06;;;;;;;20.15;15.57;;;;;;;17.40;83.47;101305.19;6094635;29;20228;-50
2021/09/25 07:04:27;;;;;;;21.70;17.23;;;;;;;17.10;84.54;101308.69;6090054;29;20633;-53
2021/09/25 07:07:49;;;;;;;26.17;16.98;;;;;;;17.35;83.44;101313.25;6094636;29;20233;-50
2021/09/25 07:11:11;;;;;;;20.10;15.68;;;;;;;16.92;85.21;101306.53;6096182;29;20321;-53
2021/09/25 07:14:33;;;;;;;19.85;15.70;;;;;;;17.35;84.01;101307.97;6086995;29;20662;-50
2021/09/25 07:17:54;;;;;;;19.20;16.90;;;;;;;17.36;83.71;101293.88;6093283;29;20229;-50
2021/09/25 07:21:15;;;;;;;20.50;16.10;;;;;;;17.41;83.29;101312.16;6091176;29;20481;-52
2021/09/25 07:24:36;;;;;;;16.80;15.03;;;;;;;17.60;83.10;101312.47;6095618;29;20213;-55
2021/09/25 07:27:57;;;;;;;17.20;15.15;;;;;;;17.51;82.45;101311.00;6083004;29;22605;-49
2021/09/25 07:31:20;;;;;;;21.67;15.90;;;;;;;17.54;83.67;101316.16;6090078;29;20213;-50
2021/09/25 07:34:41;;;;;;;18.60;15.40;;;;;;;17.58;83.00;101330.09;6081880;29;20205;-53
2021/09/25 07:38:02;;;;;;;20.43;16.50;;;;;;;17.75;82.43;101338.34;6086529;29;20224;-53
2021/09/25 07:41:24;;;;;;;21.60;16.15;;;;;;;17.46;83.01;101339.22;6095192;29;20205;-51
2021/09/25 07:44:45;;;;;;;19.57;15.57;;;;;;;17.43;83.34;101348.09;6097138;29;20200;-50
2021/09/25 07:48:07;;;;;;;19.95;14.73;;;;;;;17.74;82.15;101351.56;6099931;29;20227;-54
2021/09/25 07:51:29;;;;;;;16.83;13.57;;;;;;;17.85;81.11;101347.72;6094633;29;20248;-50
2021/09/25 07:54:50;;;;;;;22.58;16.60;;;;;;;17.87;81.54;101348.56;6096483;29;20208;-52
2021/09/25 07:58:11;;;;;;;21.92;16.05;;;;;;;17.50;82.86;101347.00;6098335;29;20775;-53
2021/09/25 08:01:32;;;;;;;15.80;12.95;;;;;;;17.32;83.81;101344.91;6085393;29;20243;-50
2021/09/25 08:04:54;;;;;;;18.00;14.77;;;;;;;17.61;83.22;101351.09;6090355;29;20709;-53
2021/09/25 08:08:15;;;;;;;18.30;16.17;;;;;;;17.93;81.96;101344.84;6085378;29;20323;-53
2021/09/25 08:11:36;;;;;;;19.52;16.58;;;;;;;17.61;83.07;101356.34;6086372;29;20256;-48
2021/09/25 08:14:58;;;;;;;18.05;13.70;;;;;;;18.03;81.39;101364.75;6090391;29;20292;-52
2021/09/25 08:18:19;;;;;;;16.35;14.70;;;;;;;17.89;81.36;101369.56;6083647;29;20771;-51
2021/09/25 08:21:42;;;;;;;17.80;14.80;;;;;;;17.89;81.66;101373.09;6084500;29;20766;-51
2021/09/25 08:25:04;;;;;;;23.58;14.77;;;;;;;18.37;80.11;101378.63;6062587;29;20201;-52
2021/09/25 08:28:25;;;;;;;23.67;15.75;;;;;;;18.47;79.23;101374.75;6099403;29;20228;-53
2021/09/25 08:31:46;;;;;;;15.60;13.13;;;;;;;18.51;79.63;101386.94;6088936;28;20307;-49
2021/09/25 08:35:08;;;;;;;16.02;13.85;;;;;;;18.56;78.43;101390.28;6114341;29;20200;-53
2021/09/25 08:38:30;;;;;;;20.73;14.85;;;;;;;18.42;79.54;101397.81;6115051;29;20235;-52
2021/09/25 08:41:53;;;;;;;16.33;14.02;;;;;;;18.52;78.93;101399.22;6117601;29;20228;-53
2021/09/25 08:45:14;;;;;;;20.13;16.67;;;;;;;18.94;77.34;101400.47;6110636;29;20288;-54
2021/09/25 08:48:37;;;;;;;17.05;13.98;;;;;;;18.65;78.31;101412.84;6107692;29;20236;-54
2021/09/25 08:52:01;;;;;;;20.42;13.98;;;;;;;18.33;80.17;101420.03;6111888;29;20227;-52
2021/09/25 08:55:24;;;;;;;21.23;12.88;;;;;;;18.69;78.52;101417.13;6106695;29;20207;-53
2021/09/25 08:58:48;;;;;;;15.70;13.82;;;;;;;18.48;78.45;101423.97;6098320;29;20725;-53
2021/09/25 09:02:11;;;;;;;14.43;12.88;;;;;;;18.80;77.63;101424.69;6096933;29;20237;-54
2021/09/25 09:05:32;;;;;;;17.25;14.75;;;;;;;18.99;76.92;101417.88;6105863;29;20360;-48
2021/09/25 09:08:54;;;;;;;17.67;13.30;;;;;;;19.33;75.57;101427.25;6101268;29;20566;-52
2021/09/25 09:12:22;;;;;;;16.63;13.57;;;;;;;18.18;80.62;101429.28;6098185;29;20237;-50
2021/09/25 09:15:44;;;;;;;16.58;12.70;;;;;;;18.67;78.49;101434.78;6103424;29;20196;-52
2021/09/25 09:19:04;;;;;;;13.93;11.88;;;;;;;18.73;77.67;101417.84;6095888;29;20232;-54
2021/09/25 09:22:26;;;;;;;14.52;11.90;;;;;;;19.18;76.34;101420.75;6092713;29;20335;-53
2021/09/25 09:25:46;;;;;;;15.23;12.90;;;;;;;19.05;76.53;101424.72;6108296;29;20200;-53
2021/09/25 09:29:09;;;;;;;15.70;13.00;;;;;;;19.04;76.46;101417.72;6119709;29;20762;-52
2021/09/25 09:32:30;;;;;;;16.35;12.50;;;;;;;19.23;75.96;101418.81;6121935;29;20560;-53
2021/09/25 09:35:51;;;;;;;15.65;13.60;;;;;;;19.19;76.12;101426.88;6114159;29;20786;-54
2021/09/25 09:39:15;;;;;;;18.35;13.63;;;;;;;19.36;75.41;101427.13;6109356;29;20227;-53
2021/09/25 09:42:44;;;;;;;20.75;12.80;;;;;;;19.80;73.70;101426.44;6122450;28;20239;-53
2021/09/25 09:46:06;;;;;;;14.13;12.90;;;;;;;19.65;74.11;101430.50;6120965;29;20200;-52
2021/09/25 09:49:32;;;;;;;13.73;12.38;;;;;;;19.77;73.43;101432.69;6123632;29;20212;-52
2021/09/25 09:52:53;;;;;;;13.18;11.73;;;;;;;19.01;76.45;101436.31;6118303;29;20503;-52
2021/09/25 09:56:22;;;;;;;12.50;10.95;;;;;;;19.59;74.72;101430.72;6123425;29;20196;-54
2021/09/25 09:59:43;;;;;;;16.58;12.20;;;;;;;19.90;72.94;101442.81;6121160;29;20227;-53
2021/09/25 10:03:07;;;;;;;16.50;11.35;;;;;;;19.20;74.83;101445.31;6117960;28;20248;-48
2021/09/25 10:06:29;;;;;;;15.90;10.60;;;;;;;19.84;73.22;101443.91;6111903;29;20783;-54
2021/09/25 10:09:50;;;;;;;15.43;11.25;;;;;;;19.83;73.34;101440.41;6118134;29;20228;-55
2021/09/25 10:13:11;;;;;;;13.70;11.05;;;;;;;19.43;74.90;101447.13;6114562;28;20678;-51
2021/09/25 10:16:33;;;;;;;14.52;11.00;;;;;;;19.46;74.21;101447.03;6120947;29;20318;-51
2021/09/25 10:19:55;;;;;;;14.68;11.68;;;;;;;20.03;72.91;101446.72;6118781;29;20216;-49
2021/09/25 10:23:17;;;;;;;13.27;9.48;;;;;;;20.26;72.09;101444.03;6116868;29;20229;-54
2021/09/25 10:26:43;;;;;;;16.98;12.27;;;;;;;19.94;72.71;101447.91;6115082;29;20715;-52
2021/09/25 10:30:07;;;;;;;12.80;10.95;;;;;;;19.89;73.02;101451.66;6123450;29;20577;-53
2021/09/25 10:33:28;;;;;;;14.48;11.30;;;;;;;20.03;72.48;101459.94;6116403;29;20319;-56
2021/09/25 10:36:53;;;;;;;15.45;10.75;;;;;;;20.23;72.01;101464.44;6124941;29;20231;-52
2021/09/25 10:40:16;;;;;;;17.08;10.15;;;;;;;20.35;71.26;101463.09;6112838;29;20879;-52
2021/09/25 10:43:43;;;;;;;14.43;9.02;;;;;;;20.52;70.60;101458.00;6112987;29;20232;-52
2021/09/25 10:47:10;;;;;;;10.38;9.38;;;;;;;20.58;70.29;101457.72;6116091;28;20227;-52
2021/09/25 10:50:31;;;;;;;16.45;10.93;;;;;;;20.24;71.12;101456.44;6111657;29;20513;-56
2021/09/25 10:54:03;;;;;;;15.05;10.00;;;;;;;20.24;71.49;101459.09;6115313;28;20867;-54
2021/09/25 10:57:29;;;;;;;13.35;9.82;;;;;;;20.07;71.78;101458.91;6118005;29;20538;-53
2021/09/25 11:00:53;;;;;;;12.73;11.25;;;;;;;20.34;71.42;101461.38;6109389;29;20212;-52
2021/09/25 11:04:20;;;;;;;13.13;10.25;;;;;;;21.36;67.50;101460.66;6104772;29;20232;-54
2021/09/25 11:07:43;;;;;;;10.50;7.97;;;;;;;21.60;66.89;101461.41;6099190;28;20236;-51
2021/09/25 11:11:07;;;;;;;11.90;9.30;;;;;;;21.41;66.84;101462.19;6094480;29;20209;-47
2021/09/25 11:14:30;;;;;;;9.52;8.63;;;;;;;21.34;67.12;101465.19;6092964;29;20604;-48
2021/09/25 11:18:26;;;;;;;21.17;9.70;;;;;;;20.78;68.26;101464.91;6090746;29;20237;-51
2021/09/25 11:21:48;;;;;;;9.70;8.75;;;;;;;21.02;67.53;101470.94;6096312;29;20228;-55
2021/09/25 11:25:12;;;;;;;9.65;8.70;;;;;;;21.26;67.35;101468.16;6097931;29;20220;-52
2021/09/25 11:28:34;;;;;;;9.25;8.30;;;;;;;21.50;66.68;101470.69;6099763;29;20228;-51
2021/09/25 11:32:03;;;;;;;10.40;9.07;;;;;;;21.20;66.72;101473.72;6087806;29;20232;-52
2021/09/25 11:35:27;;;;;;;14.98;9.27;;;;;;;21.37;66.47;101473.00;6085139;29;20236;-51
2021/09/25 11:38:53;;;;;;;11.13;9.40;;;;;;;20.94;67.11;101467.75;6092837;29;20229;-50
2021/09/25 11:42:16;;;;;;;11.43;8.43;;;;;;;21.56;65.59;101473.09;6082107;29;20239;-53
2021/09/25 11:45:40;;;;;;;10.38;8.23;;;;;;;21.38;65.26;101475.59;6085072;29;20241;-48
2021/09/25 11:49:01;;;;;;;9.30;7.32;;;;;;;21.81;64.60;101475.50;6079814;29;20232;-51
2021/09/25 11:52:23;;;;;;;8.95;8.10;;;;;;;22.76;60.33;101467.44;6074262;29;20559;-53
2021/09/25 11:55:46;;;;;;;11.77;9.43;;;;;;;22.26;62.19;101470.78;6083815;29;20201;-53
2021/09/25 11:59:07;;;;;;;9.55;8.57;;;;;;;23.72;57.53;101460.72;6077169;29;20243;-52
2021/09/25 12:02:42;;;;;;;12.20;8.15;;;;;;;22.66;61.42;101474.13;6085026;29;20232;-54
2021/09/25 12:06:04;;;;;;;8.82;7.10;;;;;;;23.14;59.82;101464.66;6088200;29;20646;-55
2021/09/25 12:09:39;;;;;;;9.45;7.30;;;;;;;22.73;60.67;101464.94;6085191;29;20234;-55
2021/09/25 12:13:03;;;;;;;8.57;6.93;;;;;;;22.70;60.24;101470.41;6097387;29;20229;-52
2021/09/25 12:16:26;;;;;;;8.02;6.78;;;;;;;22.79;59.13;101461.97;6112409;29;20224;-52
2021/09/25 12:19:48;;;;;;;7.57;6.95;;;;;;;22.17;62.03;101472.88;6112368;29;20224;-49
2021/09/25 12:23:10;;;;;;;8.50;7.70;;;;;;;25.08;53.21;101467.25;6112525;28;20235;-53
2021/09/25 12:26:34;;;;;;;7.20;6.15;;;;;;;23.97;56.29;101466.44;6103455;29;20236;-54
2021/09/25 12:29:55;;;;;;;9.30;5.82;;;;;;;24.80;54.39;101460.06;6106064;29;20208;-51
2021/09/25 12:33:18;;;;;;;7.07;5.97;;;;;;;23.92;55.73;101462.31;6106481;29;20236;-55
2021/09/25 12:36:43;;;;;;;7.45;5.70;;;;;;;23.81;57.04;101467.38;6106355;28;20263;-50
2021/09/25 12:40:04;;;;;;;6.78;6.07;;;;;;;23.46;56.45;101459.44;6114474;29;20220;-53
2021/09/25 12:43:25;;;;;;;7.28;5.03;;;;;;;23.53;56.92;101460.84;6099457;28;20235;-51
2021/09/25 12:46:48;;;;;;;7.28;5.70;;;;;;;24.12;55.42;101459.44;6093969;28;20240;-51
2021/09/25 12:50:21;;;;;;;9.00;5.40;;;;;;;24.26;54.42;101458.66;6092913;29;20231;-52
2021/09/25 12:53:53;;;;;;;7.78;5.13;;;;;;;24.30;53.83;101462.00;6101239;29;20243;-49
2021/09/25 12:57:17;;;;;;;8.13;4.78;;;;;;;28.12;46.08;101453.50;6103597;28;20728;-49
2021/09/25 13:00:44;;;;;;;5.97;4.10;;;;;;;31.03;36.37;101450.19;6108830;29;20208;-51
2021/09/25 13:04:20;;;;;;;5.70;3.92;;;;;;;31.71;35.75;101445.16;6106763;29;20227;-51
2021/09/25 13:07:42;;;;;;;6.57;4.00;;;;;;;31.93;35.54;101437.84;6122904;29;20236;-49
2021/09/25 13:11:12;;;;;;;4.85;3.40;;;;;;;32.90;33.28;101437.94;6122735;29;20220;-52
2021/09/25 13:14:34;;;;;;;5.65;3.63;;;;;;;33.42;31.58;101429.41;6117885;29;20236;-50
2021/09/25 13:17:57;;;;;;;4.03;2.40;;;;;;;34.55;29.22;101440.81;6119591;28;20243;-50
2021/09/25 13:21:18;;;;;;;4.60;3.08;;;;;;;28.57;39.65;101445.72;6116312;29;20630;-53
2021/09/25 13:24:41;;;;;;;4.65;3.50;;;;;;;27.06;43.74;101451.09;6111289;29;20200;-52
2021/09/25 13:28:05;;;;;;;7.82;5.70;;;;;;;28.10;41.39;101439.38;6114954;28;20617;-52
2021/09/25 13:31:27;;;;;;;206.45;191.25;;;;;;;30.10;36.22;101434.69;6118317;29;20200;-50
2021/09/25 13:34:48;;;;;;;911.35;647.28;;;;;;;34.35;30.89;101431.16;6123121;29;20208;-54
2021/09/25 13:38:09;;;;;;;462.55;346.95;;;;;;;33.98;30.58;101437.53;6125423;28;20239;-53
2021/09/25 13:41:30;;;;;;;265.70;236.77;;;;;;;36.02;27.80;101426.41;6115846;29;20611;-52
2021/09/25 13:44:52;;;;;;;127.15;99.25;;;;;;;33.04;31.62;101433.09;6115098;29;20223;-52
2021/09/25 13:48:13;;;;;;;138.68;124.85;;;;;;;29.61;38.45;101442.16;6116142;29;20255;-58
2021/09/25 13:51:35;;;;;;;267.40;248.60;;;;;;;28.12;42.54;101442.81;6109193;29;20649;-55
2021/09/25 13:54:56;;;;;;;98.07;88.78;;;;;;;26.41;46.14;101442.06;6114463;29;20204;-56
2021/09/25 13:58:17;;;;;;;290.73;259.67;;;;;;;25.81;46.42;101442.38;6109244;29;20244;-57
2021/09/25 14:01:41;;;;;;;117.50;107.15;;;;;;;25.42;50.28;101446.59;6113904;28;20248;-50
2021/09/25 14:05:02;;;;;;;239.55;214.73;;;;;;;25.14;51.36;101440.25;6119505;29;20220;-50
2021/09/25 14:08:23;;;;;;;155.25;140.77;;;;;;;24.30;52.50;101459.34;6113256;29;20251;-55
2021/09/25 14:11:45;;;;;;;145.40;131.18;;;;;;;24.74;53.58;101458.63;6109579;29;20624;-51
2021/09/25 14:15:06;;;;;;;790.17;701.35;;;;;;;25.09;52.55;101461.00;6118442;29;20200;-55
2021/09/25 14:18:28;;;;;;;82.80;74.80;;;;;;;24.89;53.13;101454.16;6112691;28;20499;-50
2021/09/25 14:21:51;;;;;;;206.43;181.98;;;;;;;24.55;52.45;101461.50;6101890;29;20605;-51
2021/09/25 14:25:12;;;;;;;44.55;40.50;;;;;;;24.08;53.21;101468.53;6112118;29;20208;-52
2021/09/25 14:28:34;;;;;;;7.53;6.82;;;;;;;23.74;54.73;101465.00;6104138;29;20232;-50
2021/09/25 14:31:55;;;;;;;9.73;5.95;;;;;;;24.51;52.88;101463.47;6106459;29;20235;-54
2021/09/25 14:35:17;;;;;;;8.45;6.15;;;;;;;26.84;45.47;101462.41;6114287;29;20212;-54
2021/09/25 14:38:38;;;;;;;3.95;3.38;;;;;;;25.50;48.38;101457.66;6112398;29;20641;-53
2021/09/25 14:42:00;;;;;;;7.30;4.97;;;;;;;24.40;51.13;101463.19;6117848;29;20232;-53
2021/09/25 14:45:21;;;;;;;5.57;3.28;;;;;;;24.38;50.71;101470.41;6114864;29;20208;-52
2021/09/25 14:48:42;;;;;;;4.50;3.17;;;;;;;25.91;46.76;101465.72;6109029;28;20243;-51
2021/09/25 14:52:06;;;;;;;3.67;2.15;;;;;;;26.13;45.83;101472.38;6108173;29;20685;-52
2021/09/25 14:55:27;;;;;;;4.82;3.03;;;;;;;25.32;48.63;101468.47;6107964;29;20208;-53
2021/09/25 14:58:48;;;;;;;5.57;3.53;;;;;;;24.68;50.71;101478.47;6109924;29;20236;-51
2021/09/25 15:02:11;;;;;;;4.80;2.70;;;;;;;24.81;50.45;101480.41;6105617;29;20244;-53
2021/09/25 15:05:32;;;;;;;4.32;2.75;;;;;;;23.96;53.08;101479.81;6106744;29;20220;-51
2021/09/25 15:08:54;;;;;;;8.63;2.97;;;;;;;23.66;53.74;101475.22;6102011;29;20224;-52
2021/09/25 15:12:15;;;;;;;6.57;3.20;;;;;;;23.82;53.89;101472.59;6109393;28;20319;-52
2021/09/25 15:15:36;;;;;;;6.15;3.20;;;;;;;23.67;53.71;101468.97;6094387;29;20233;-54
2021/09/25 15:18:57;;;;;;;7.32;3.92;;;;;;;23.70;54.45;101475.91;6099321;29;20754;-55
2021/09/25 15:22:18;;;;;;;7.10;3.47;;;;;;;23.52;54.41;101475.94;6108065;29;20248;-52
2021/09/25 15:25:42;;;;;;;3.60;2.30;;;;;;;23.87;52.24;101475.03;6108501;29;20200;-49